Etusivu
METAR-TAF:

METAR-TAF

Lentoasemat :

Langlade County Airport

Antigo, Wisconsin, Yhdysvallat

Leveyspiiri: 45-09-15N, Pituuspiiri: 89-06-39W, korkeus merenpinnasta: 464 m

Tämänhetkinen sää

Tämä raportti tehtiin 29 minuuttia sitten, kello 10.35 UTC
Tuuli 11 kn lännestä puuskistuen 20 kn:hen
Lämpötila -2°C
Kosteus 80%
Ilmanpaine 999 hPa
Näkyvyys: 16.1 km
Hajonneita pilviä 2700 ft:n korkeudessa
Pilvistä 3400 ft:n korkeudessa

METAR: KAIG 211035Z AUTO 26011G20KT 10SM BKN027 OVC034 M02/M05 A2949 RMK AO2 T10161050

Aika: 05:04 (11:04 UTC)


TAF: puuttuu

Säähavainnot ja -ennusteet yli 4000 lentoasemalta (METAR- ja TAF-raportit).

Käytössä olevat sääasemat on merkitty karttaan keltaisilla ja punaisilla pisteillä.

Aseta hiiri pisteen päälle nähdäksesi sääaseman nimen.

Klikkaa sitten nähdäksesi säähavainnot ja -ennusteet.

Kartan vaihtaminen: klikkaa mustalla rastilla varustettuja vihreitä pisteitä, niin voit zoomata sisään; viivalla varustettua vihreää pistettä, niin voit zoomata ulos tai vihreitä nuolia, niin pääset viereisille kartoille.


METAR-TAF: